TISX/STX METAR and TAF weather

Enter ICAO airport designator
Station Type Date Time Source
TISX METAR 2020/04/05 22:53 UTC NOAA

TISX 052253Z 04003KT 10SM BKN110 27/20 A2998 RMK AO2 SLP149 T02670200 $


Station Type Date Time Source
TISX Decoded METAR 2020/04/05 22:53 UTC NOAA

Christiansted, Henry E. Rohlsen Airport, Virgin Islands (TISX) 17-42N 064-48W 17M
Apr 05, 2020 - 06:53 PM EDT / 2020.04.05 2253 UTC
Wind: from the NE (040 degrees) at 3 MPH (3 KT):0
Visibility: 10 mile(s):0
Sky conditions: mostly cloudy
Temperature: 80.1 F (26.7 C)
Dew Point: 68.0 F (20.0 C)
Relative Humidity: 66%
Pressure (altimeter): 29.98 in. Hg (1015 hPa)
ob: TISX 052253Z 04003KT 10SM BKN110 27/20 A2998 RMK AO2 SLP149 T02670200
cycle: 23

Station Type Date Time Source
TISX TAF 2020/04/05 18:52 UTC NOAA

TAF TISX 051740Z 0518/0618 VRB06KT P6SM FEW030 FEW070
FM052100 08006KT P6SM FEW030 FEW070
FM061300 10010KT P6SM VCSH SCT030 BKN070

Example: see airport list